createdAt,value
2019-04-30T00:00:18.345Z,11.10
2019-04-30T00:01:18.977Z,11.08
2019-04-30T00:02:17.795Z,11.04
2019-04-30T00:03:19.603Z,11.04
2019-04-30T00:04:17.758Z,11.12
2019-04-30T00:05:19.067Z,11.05
2019-04-30T00:06:17.736Z,11.07
2019-04-30T00:07:19.061Z,11.10
2019-04-30T00:08:17.734Z,11.07
2019-04-30T00:09:19.202Z,11.04
2019-04-30T00:10:17.692Z,11.07
2019-04-30T00:11:19.505Z,11.00
2019-04-30T00:12:17.667Z,11.00
2019-04-30T00:13:20.836Z,11.04
2019-04-30T00:14:17.657Z,10.96
2019-04-30T00:15:19.505Z,10.81
2019-04-30T00:16:17.625Z,10.87
2019-04-30T00:17:19.624Z,10.87
2019-04-30T00:18:30.754Z,10.79
2019-04-30T00:19:19.866Z,10.86
2019-04-30T00:20:17.813Z,10.82
2019-04-30T00:21:18.828Z,10.90
2019-04-30T00:22:17.764Z,10.81
2019-04-30T00:23:18.039Z,10.86
2019-04-30T00:24:17.578Z,10.90
2019-04-30T00:25:19.705Z,10.79
2019-04-30T00:26:18.516Z,10.86
2019-04-30T00:27:20.966Z,10.84
2019-04-30T00:28:18.513Z,10.79
2019-04-30T00:29:26.450Z,10.86
2019-04-30T00:30:18.465Z,10.87
2019-04-30T00:31:23.787Z,10.87
2019-04-30T00:32:18.471Z,10.92
2019-04-30T00:33:22.087Z,10.96
2019-04-30T00:34:18.439Z,10.89
2019-04-30T00:35:19.549Z,10.94
2019-04-30T00:36:17.479Z,10.93
2019-04-30T00:37:18.875Z,10.97
2019-04-30T00:38:17.431Z,10.87
2019-04-30T00:39:17.366Z,10.93
2019-04-30T00:40:17.367Z,10.90
2019-04-30T00:41:17.345Z,10.93
2019-04-30T00:42:24.017Z,10.84
2019-04-30T00:43:18.317Z,10.82
2019-04-30T00:44:19.982Z,10.79
2019-04-30T00:45:18.296Z,10.86
2019-04-30T00:46:24.734Z,10.90
2019-04-30T00:47:18.278Z,10.89
2019-04-30T00:48:26.831Z,10.92
2019-04-30T00:49:22.962Z,10.94
2019-04-30T00:50:18.242Z,10.86
2019-04-30T00:51:21.081Z,10.87
2019-04-30T00:52:17.239Z,10.96
2019-04-30T00:53:17.208Z,10.86
2019-04-30T00:54:17.656Z,11.02
2019-04-30T00:55:17.185Z,11.00
2019-04-30T00:56:19.836Z,10.90
2019-04-30T00:57:18.204Z,10.92
2019-04-30T00:58:24.872Z,10.93
2019-04-30T00:59:18.140Z,10.89
2019-04-30T01:00:25.108Z,10.92
2019-04-30T01:01:18.116Z,10.89
2019-04-30T01:02:20.168Z,10.92
2019-04-30T01:03:18.147Z,10.86
2019-04-30T01:04:19.544Z,10.87
2019-04-30T01:05:18.075Z,10.96
2019-04-30T01:06:24.016Z,10.96
2019-04-30T01:07:18.065Z,10.87
2019-04-30T01:08:21.046Z,10.92
2019-04-30T01:09:18.087Z,10.79
2019-04-30T01:10:19.668Z,10.81
2019-04-30T01:11:18.001Z,10.81
2019-04-30T01:12:24.556Z,10.87
2019-04-30T01:13:19.207Z,10.90
2019-04-30T01:14:18.732Z,10.86
2019-04-30T01:15:18.932Z,10.90
2019-04-30T01:16:16.943Z,10.89
2019-04-30T01:17:18.767Z,10.81
2019-04-30T01:18:16.926Z,10.94
2019-04-30T01:19:27.602Z,10.90
2019-04-30T01:20:19.354Z,10.90
2019-04-30T01:21:18.519Z,10.87
2019-04-30T01:22:21.262Z,10.89
2019-04-30T01:23:19.493Z,10.92
2019-04-30T01:24:18.917Z,10.93
2019-04-30T01:25:18.704Z,10.90
2019-04-30T01:26:18.627Z,10.94
2019-04-30T01:27:18.685Z,11.02
2019-04-30T01:28:23.156Z,10.97
2019-04-30T01:29:19.224Z,10.96
2019-04-30T01:30:18.719Z,10.93
2019-04-30T01:31:18.767Z,10.92
2019-04-30T01:32:20.816Z,10.99
2019-04-30T01:33:16.774Z,10.93
2019-04-30T01:34:16.780Z,10.90
2019-04-30T01:35:16.741Z,10.87
2019-04-30T01:36:16.722Z,10.89
2019-04-30T01:37:20.285Z,10.90
2019-04-30T01:38:18.887Z,10.96
2019-04-30T01:39:16.682Z,10.94
2019-04-30T01:40:18.815Z,10.87
2019-04-30T01:41:20.275Z,10.90
2019-04-30T01:42:18.462Z,10.84
2019-04-30T01:43:16.646Z,10.79
2019-04-30T01:44:16.657Z,10.79
2019-04-30T01:45:18.617Z,10.86
2019-04-30T01:46:16.634Z,10.82
2019-04-30T01:47:16.593Z,10.69
2019-04-30T01:48:16.583Z,10.81
2019-04-30T01:49:20.028Z,10.74
2019-04-30T01:50:16.588Z,10.72
2019-04-30T01:51:18.406Z,10.76
2019-04-30T01:52:16.544Z,10.79
2019-04-30T01:53:16.524Z,10.81
2019-04-30T01:54:20.831Z,10.81
2019-04-30T01:55:17.525Z,10.79
2019-04-30T01:56:16.490Z,10.72
2019-04-30T01:57:16.478Z,10.69
2019-04-30T01:58:19.119Z,10.72
2019-04-30T01:59:16.466Z,10.71
2019-04-30T02:00:16.449Z,10.76
2019-04-30T02:01:16.444Z,10.69
2019-04-30T02:02:16.438Z,10.67
2019-04-30T02:03:16.417Z,10.69
2019-04-30T02:04:16.399Z,10.68
2019-04-30T02:05:16.417Z,10.72
2019-04-30T02:06:16.407Z,10.67
2019-04-30T02:07:16.370Z,10.67
2019-04-30T02:08:16.380Z,10.76
2019-04-30T02:09:16.343Z,10.78
2019-04-30T02:10:16.335Z,10.78
2019-04-30T02:11:16.357Z,10.82
2019-04-30T02:12:16.312Z,10.82
2019-04-30T02:13:16.300Z,10.75
2019-04-30T02:14:16.303Z,10.72
2019-04-30T02:15:16.277Z,10.67
2019-04-30T02:16:16.265Z,10.69
2019-04-30T02:17:16.291Z,10.68
2019-04-30T02:18:16.243Z,10.78
2019-04-30T02:19:16.279Z,10.61
2019-04-30T02:20:16.220Z,10.64
2019-04-30T02:21:16.211Z,10.67
2019-04-30T02:22:16.195Z,10.72
2019-04-30T02:23:16.184Z,10.74
2019-04-30T02:24:16.208Z,10.63
2019-04-30T02:25:16.190Z,10.64
2019-04-30T02:26:16.166Z,10.69
2019-04-30T02:27:16.165Z,10.78
2019-04-30T02:28:16.132Z,10.72
2019-04-30T02:29:16.115Z,10.69
2019-04-30T02:30:16.153Z,10.72
2019-04-30T02:31:16.108Z,10.71
2019-04-30T02:32:16.119Z,10.67
2019-04-30T02:33:16.097Z,10.69
2019-04-30T02:34:16.064Z,10.64
2019-04-30T02:35:16.056Z,10.71
2019-04-30T02:36:16.070Z,10.67
2019-04-30T02:37:16.048Z,10.60
2019-04-30T02:38:16.056Z,10.56
2019-04-30T02:39:16.004Z,10.56
2019-04-30T02:40:16.008Z,10.53
2019-04-30T02:41:15.984Z,10.54
2019-04-30T02:42:15.983Z,10.56
2019-04-30T02:43:15.999Z,10.56
2019-04-30T02:44:15.959Z,10.51
2019-04-30T02:45:15.936Z,10.54
2019-04-30T02:46:15.926Z,10.53
2019-04-30T02:47:15.932Z,10.56
2019-04-30T02:48:15.901Z,10.57
2019-04-30T02:49:15.895Z,10.54
2019-04-30T02:50:19.789Z,10.51
2019-04-30T02:51:19.658Z,10.48
2019-04-30T02:52:19.421Z,10.54
2019-04-30T02:53:15.851Z,10.57
2019-04-30T02:54:15.835Z,10.57
2019-04-30T02:55:15.822Z,10.51
2019-04-30T02:56:15.820Z,10.53
2019-04-30T02:57:15.800Z,10.51
2019-04-30T02:58:15.799Z,10.56
2019-04-30T02:59:15.779Z,10.54
2019-04-30T03:00:15.763Z,10.57
2019-04-30T03:01:15.757Z,10.57
2019-04-30T03:02:15.774Z,10.54
2019-04-30T03:03:15.735Z,10.56
2019-04-30T03:04:15.735Z,10.54
2019-04-30T03:05:15.712Z,10.56
2019-04-30T03:06:15.696Z,10.56
2019-04-30T03:07:15.703Z,10.51
2019-04-30T03:08:15.697Z,10.42
2019-04-30T03:09:15.664Z,10.37
2019-04-30T03:10:15.652Z,10.40
2019-04-30T03:11:15.644Z,10.38
2019-04-30T03:12:15.627Z,10.44
2019-04-30T03:13:15.633Z,10.42
2019-04-30T03:14:15.611Z,10.49
2019-04-30T03:15:15.625Z,10.49
2019-04-30T03:16:15.601Z,10.51
2019-04-30T03:17:15.574Z,10.56
2019-04-30T03:18:15.598Z,10.59
2019-04-30T03:19:15.553Z,10.54
2019-04-30T03:20:31.752Z,10.41
2019-04-30T03:21:19.070Z,10.44
2019-04-30T03:22:15.566Z,10.41
2019-04-30T03:23:15.518Z,10.38
2019-04-30T03:24:15.521Z,10.48
2019-04-30T03:25:15.481Z,10.41
2019-04-30T03:26:15.472Z,10.44
2019-04-30T03:27:15.485Z,10.44
2019-04-30T03:28:15.488Z,10.51
2019-04-30T03:29:15.438Z,10.44
2019-04-30T03:30:15.435Z,10.40
2019-04-30T03:31:15.424Z,10.42
2019-04-30T03:32:15.419Z,10.54
2019-04-30T03:33:15.406Z,10.51
2019-04-30T03:34:24.247Z,10.56
2019-04-30T03:35:16.368Z,10.49
2019-04-30T03:36:15.380Z,10.54
2019-04-30T03:37:15.349Z,10.42
2019-04-30T03:38:15.339Z,10.46
2019-04-30T03:39:15.342Z,10.44
2019-04-30T03:40:15.330Z,10.49
2019-04-30T03:41:15.305Z,10.42
2019-04-30T03:42:15.360Z,10.33
2019-04-30T03:43:15.296Z,10.34
2019-04-30T03:44:21.493Z,10.35
2019-04-30T03:45:16.255Z,10.35
2019-04-30T03:46:15.246Z,10.35
2019-04-30T03:47:15.257Z,10.28
2019-04-30T03:48:15.242Z,10.28
2019-04-30T03:49:15.216Z,10.30
2019-04-30T03:50:15.196Z,10.28
2019-04-30T03:51:15.190Z,10.28
2019-04-30T03:52:15.181Z,10.28
2019-04-30T03:53:15.185Z,10.38
2019-04-30T03:54:15.158Z,10.35
2019-04-30T03:55:15.142Z,10.41
2019-04-30T03:56:15.150Z,10.31
2019-04-30T03:57:15.121Z,10.42
2019-04-30T03:58:15.132Z,10.40
2019-04-30T03:59:15.107Z,10.28
2019-04-30T04:00:15.095Z,10.37
2019-04-30T04:01:15.079Z,10.40
2019-04-30T04:02:15.100Z,10.33
2019-04-30T04:03:15.066Z,10.33
2019-04-30T04:04:15.057Z,10.30
2019-04-30T04:05:15.089Z,10.31
2019-04-30T04:06:15.028Z,10.35
2019-04-30T04:07:15.007Z,10.28
2019-04-30T04:08:14.999Z,10.35
2019-04-30T04:09:14.982Z,10.33
2019-04-30T04:10:14.996Z,10.31
2019-04-30T04:11:14.980Z,10.31
2019-04-30T04:12:14.952Z,10.31
2019-04-30T04:13:14.937Z,10.35
2019-04-30T04:14:14.928Z,10.34
2019-04-30T04:15:14.943Z,10.34
2019-04-30T04:16:14.918Z,10.38
2019-04-30T04:17:14.917Z,10.41
2019-04-30T04:18:14.912Z,10.38
2019-04-30T04:19:14.874Z,10.38
2019-04-30T04:20:14.861Z,10.37
2019-04-30T04:21:16.873Z,10.35
2019-04-30T04:22:14.835Z,10.40
2019-04-30T04:23:14.823Z,10.28
2019-04-30T04:24:14.841Z,10.35
2019-04-30T04:25:14.809Z,10.34
2019-04-30T04:26:14.811Z,10.37
2019-04-30T04:27:14.792Z,10.37
2019-04-30T04:28:14.767Z,10.23
2019-04-30T04:29:14.767Z,10.28
2019-04-30T04:30:14.776Z,10.20
2019-04-30T04:31:14.733Z,10.28
2019-04-30T04:32:14.725Z,10.23
2019-04-30T04:33:14.734Z,10.25
2019-04-30T04:34:14.709Z,10.22
2019-04-30T04:35:14.698Z,10.19
2019-04-30T04:36:14.710Z,10.22
2019-04-30T04:37:14.665Z,10.33
2019-04-30T04:38:14.661Z,10.33
2019-04-30T04:39:14.669Z,10.20
2019-04-30T04:40:14.637Z,10.31
2019-04-30T04:41:14.625Z,10.33
2019-04-30T04:42:14.653Z,10.28
2019-04-30T04:43:14.598Z,10.28
2019-04-30T04:44:14.637Z,10.33
2019-04-30T04:45:14.575Z,10.35
2019-04-30T04:46:14.566Z,10.35
2019-04-30T04:47:16.301Z,10.35
2019-04-30T04:48:14.540Z,10.38
2019-04-30T04:49:14.528Z,10.37
2019-04-30T04:50:14.532Z,10.35
2019-04-30T04:51:30.882Z,10.38
2019-04-30T04:52:15.504Z,10.38
2019-04-30T04:53:14.484Z,10.41
2019-04-30T04:54:14.476Z,10.44
2019-04-30T04:55:14.463Z,10.46
2019-04-30T04:56:14.527Z,10.46
2019-04-30T04:57:18.275Z,10.53
2019-04-30T04:58:15.426Z,10.51
2019-04-30T04:59:14.417Z,10.42
2019-04-30T05:00:14.405Z,10.42
2019-04-30T05:01:14.397Z,10.44
2019-04-30T05:02:14.412Z,10.38
2019-04-30T05:03:14.388Z,10.41
2019-04-30T05:04:14.364Z,10.37
2019-04-30T05:05:14.351Z,10.42
2019-04-30T05:06:14.374Z,10.40
2019-04-30T05:07:14.339Z,10.40
2019-04-30T05:08:14.332Z,10.38
2019-04-30T05:09:14.303Z,10.35
2019-04-30T05:10:14.328Z,10.46
2019-04-30T05:11:14.282Z,10.41
2019-04-30T05:12:14.269Z,10.40
2019-04-30T05:13:14.255Z,10.46
2019-04-30T05:14:14.259Z,10.35
2019-04-30T05:15:14.236Z,10.41
2019-04-30T05:16:14.223Z,10.42
2019-04-30T05:17:14.242Z,10.53
2019-04-30T05:18:14.196Z,10.51
2019-04-30T05:19:14.204Z,10.48
2019-04-30T05:20:14.180Z,10.42
2019-04-30T05:21:14.163Z,10.42
2019-04-30T05:22:14.154Z,10.38
2019-04-30T05:23:14.142Z,10.51
2019-04-30T05:24:14.164Z,10.54
2019-04-30T05:25:14.118Z,10.49
2019-04-30T05:26:14.133Z,10.34
2019-04-30T05:27:14.117Z,10.40
2019-04-30T05:28:14.085Z,10.42
2019-04-30T05:29:14.078Z,10.54
2019-04-30T05:30:14.094Z,10.51
2019-04-30T05:31:14.050Z,10.54
2019-04-30T05:32:14.065Z,10.48
2019-04-30T05:33:14.028Z,10.49
2019-04-30T05:34:22.696Z,10.49
2019-04-30T05:35:21.639Z,10.56
2019-04-30T05:36:14.036Z,10.56
2019-04-30T05:37:22.924Z,10.56
2019-04-30T05:38:22.640Z,10.60
2019-04-30T05:39:21.651Z,10.69
2019-04-30T05:40:14.042Z,10.75
2019-04-30T05:41:21.653Z,10.69
2019-04-30T05:42:21.572Z,10.69
2019-04-30T05:43:14.016Z,10.68
2019-04-30T05:44:21.596Z,10.54
2019-04-30T05:45:13.997Z,10.59
2019-04-30T05:46:14.148Z,10.49
2019-04-30T05:47:13.934Z,10.56
2019-04-30T05:48:13.950Z,10.59
2019-04-30T05:49:13.897Z,10.71
2019-04-30T05:50:13.847Z,10.60
2019-04-30T05:51:13.823Z,10.67
2019-04-30T05:52:13.816Z,10.72
2019-04-30T05:53:13.837Z,10.72
2019-04-30T05:54:13.808Z,10.71
2019-04-30T05:55:13.781Z,10.74
2019-04-30T05:56:13.807Z,10.84
2019-04-30T05:57:13.770Z,10.82
2019-04-30T05:58:13.746Z,10.79
2019-04-30T05:59:13.735Z,10.96
2019-04-30T06:00:13.742Z,10.90
2019-04-30T06:01:13.725Z,10.89
2019-04-30T06:02:13.703Z,10.90
2019-04-30T06:03:25.250Z,10.87
2019-04-30T06:04:14.681Z,10.82
2019-04-30T06:05:13.669Z,10.89
2019-04-30T06:06:13.679Z,10.86
2019-04-30T06:07:13.658Z,10.87
2019-04-30T06:08:13.634Z,10.82
2019-04-30T06:09:22.588Z,10.96
2019-04-30T06:10:14.615Z,10.86
2019-04-30T06:11:13.604Z,10.79
2019-04-30T06:12:13.604Z,10.84
2019-04-30T06:13:13.575Z,10.81
2019-04-30T06:14:13.565Z,10.84
2019-04-30T06:15:13.554Z,10.81
2019-04-30T06:16:13.584Z,10.76
2019-04-30T06:17:13.552Z,10.69
2019-04-30T06:18:21.078Z,10.69
2019-04-30T06:19:13.506Z,10.71
2019-04-30T06:20:18.315Z,10.76
2019-04-30T06:21:14.481Z,10.71
2019-04-30T06:22:13.472Z,10.76
2019-04-30T06:23:13.472Z,10.82
2019-04-30T06:24:13.447Z,10.89
2019-04-30T06:25:13.439Z,10.89
2019-04-30T06:26:13.444Z,10.97
2019-04-30T06:27:13.418Z,10.89
2019-04-30T06:28:13.424Z,10.94
2019-04-30T06:29:13.388Z,10.90
2019-04-30T06:30:13.380Z,10.93
2019-04-30T06:31:13.367Z,10.81
2019-04-30T06:32:13.354Z,10.84
2019-04-30T06:33:13.342Z,10.87
2019-04-30T06:34:13.344Z,10.86
2019-04-30T06:35:13.323Z,10.92
2019-04-30T06:36:13.323Z,10.97
2019-04-30T06:37:13.301Z,11.02
2019-04-30T06:38:13.289Z,11.04
2019-04-30T06:39:13.310Z,11.04
2019-04-30T06:40:13.268Z,11.10
2019-04-30T06:41:13.256Z,11.10
2019-04-30T06:42:13.251Z,11.10
2019-04-30T06:43:13.239Z,11.08
2019-04-30T06:44:13.218Z,10.97
2019-04-30T06:45:13.222Z,11.07
2019-04-30T06:46:13.203Z,11.11
2019-04-30T06:47:13.200Z,11.04
2019-04-30T06:48:13.173Z,11.00
2019-04-30T06:49:13.177Z,11.08
2019-04-30T06:50:13.151Z,11.25
2019-04-30T06:51:13.138Z,11.25
2019-04-30T06:52:20.545Z,11.23
2019-04-30T06:53:14.142Z,11.27
2019-04-30T06:54:13.112Z,11.45
2019-04-30T06:55:13.094Z,11.44
2019-04-30T06:56:13.084Z,11.51
2019-04-30T06:57:13.073Z,11.57
2019-04-30T06:58:15.572Z,11.55
2019-04-30T06:59:13.060Z,11.59
2019-04-30T07:00:13.042Z,11.62
2019-04-30T07:01:13.030Z,11.68
2019-04-30T07:02:13.021Z,11.59
2019-04-30T07:03:13.006Z,11.55
2019-04-30T07:04:13.020Z,11.57
2019-04-30T07:05:12.986Z,11.55
2019-04-30T07:06:12.991Z,11.57
2019-04-30T07:07:14.320Z,11.66
2019-04-30T07:08:13.955Z,11.83
2019-04-30T07:09:12.939Z,12.04
2019-04-30T07:10:16.795Z,12.00
2019-04-30T07:11:13.938Z,12.06
2019-04-30T07:12:23.015Z,12.00
2019-04-30T07:13:13.893Z,12.02
2019-04-30T07:14:12.883Z,11.99
2019-04-30T07:15:13.759Z,12.12
2019-04-30T07:16:12.873Z,12.03
2019-04-30T07:17:12.876Z,11.97
2019-04-30T07:18:12.841Z,11.80
2019-04-30T07:19:12.840Z,11.90
2019-04-30T07:20:12.828Z,11.88
2019-04-30T07:21:12.814Z,11.84
2019-04-30T07:22:12.794Z,11.81
2019-04-30T07:23:12.799Z,11.81
2019-04-30T07:24:12.775Z,11.86
2019-04-30T07:25:12.763Z,11.87
2019-04-30T07:26:13.721Z,11.86
2019-04-30T07:27:13.769Z,11.75
2019-04-30T07:28:12.739Z,11.84
2019-04-30T07:29:12.716Z,11.90
2019-04-30T07:30:12.728Z,11.83
2019-04-30T07:32:13.691Z,11.95
2019-04-30T07:33:12.671Z,12.04
2019-04-30T07:34:12.672Z,11.99
2019-04-30T07:35:12.644Z,12.04
2019-04-30T07:36:12.657Z,12.02
2019-04-30T07:37:20.520Z,12.12
2019-04-30T07:38:13.610Z,12.37
2019-04-30T07:39:12.640Z,12.37
2019-04-30T07:40:12.591Z,12.37
2019-04-30T07:41:12.578Z,12.42
2019-04-30T07:42:12.569Z,12.60
2019-04-30T07:43:12.572Z,12.58
2019-04-30T07:44:29.470Z,12.61
2019-04-30T07:45:13.531Z,12.65
2019-04-30T07:46:12.521Z,12.82
2019-04-30T07:47:12.511Z,12.79
2019-04-30T07:48:12.503Z,12.90
2019-04-30T07:49:12.505Z,12.93
2019-04-30T07:50:13.037Z,12.98
2019-04-30T07:51:12.953Z,13.05
2019-04-30T07:52:13.219Z,12.98
2019-04-30T07:53:13.140Z,12.94
2019-04-30T07:54:12.438Z,12.91
2019-04-30T07:55:12.427Z,12.80
2019-04-30T07:56:24.200Z,12.80
2019-04-30T07:57:13.413Z,12.70
2019-04-30T07:58:12.461Z,12.70
2019-04-30T07:59:12.376Z,12.62
2019-04-30T08:00:12.366Z,12.54
2019-04-30T08:01:12.352Z,12.55
2019-04-30T08:02:14.809Z,12.61
2019-04-30T08:03:12.746Z,12.67
2019-04-30T08:04:12.319Z,12.70
2019-04-30T08:05:12.325Z,12.82
2019-04-30T08:06:12.372Z,12.93
2019-04-30T08:07:12.325Z,12.98
2019-04-30T08:08:21.033Z,13.01
2019-04-30T08:09:13.268Z,13.00
2019-04-30T08:09:38.350Z,11.86
2019-04-30T08:10:12.254Z,13.04
2019-04-30T08:11:22.922Z,12.98
2019-04-30T08:12:21.595Z,12.95
2019-04-30T08:13:15.255Z,13.16
2019-04-30T08:14:12.210Z,13.27
2019-04-30T08:15:12.218Z,13.35
2019-04-30T08:16:12.187Z,13.41
2019-04-30T08:17:12.184Z,13.49
2019-04-30T08:18:12.172Z,13.59
2019-04-30T08:19:12.158Z,13.59
2019-04-30T08:20:12.146Z,13.72
2019-04-30T08:21:12.143Z,13.78
2019-04-30T08:22:12.139Z,13.72
2019-04-30T08:23:20.148Z,13.85
2019-04-30T08:24:13.131Z,13.92
2019-04-30T08:25:12.086Z,13.89
2019-04-30T08:26:12.072Z,14.04
2019-04-30T08:27:12.064Z,14.22
2019-04-30T08:28:12.075Z,14.36
2019-04-30T08:29:12.046Z,14.50
2019-04-30T08:30:23.011Z,14.69
2019-04-30T08:31:15.563Z,14.63
2019-04-30T08:32:12.009Z,14.70
2019-04-30T08:33:12.009Z,14.77
2019-04-30T08:34:12.017Z,14.73
2019-04-30T08:35:11.974Z,14.65
2019-04-30T08:36:11.966Z,14.54
2019-04-30T08:37:17.153Z,14.29
2019-04-30T08:38:12.944Z,14.14
2019-04-30T08:39:11.935Z,14.15
2019-04-30T08:40:11.929Z,14.20
2019-04-30T08:41:11.924Z,14.23
2019-04-30T08:42:11.902Z,14.22
2019-04-30T08:43:11.900Z,14.17
2019-04-30T08:44:11.894Z,14.15
2019-04-30T08:45:11.887Z,14.35
2019-04-30T08:46:11.898Z,14.41
2019-04-30T08:47:11.841Z,14.33
2019-04-30T08:48:11.859Z,14.55
2019-04-30T08:49:11.894Z,14.68
2019-04-30T08:50:11.919Z,14.65
2019-04-30T08:51:13.809Z,14.69
2019-04-30T08:52:12.078Z,14.79
2019-04-30T08:53:11.978Z,14.89
2019-04-30T08:54:11.833Z,14.68
2019-04-30T08:55:16.433Z,14.89
2019-04-30T08:56:12.758Z,14.94
2019-04-30T08:57:11.725Z,15.04
2019-04-30T08:58:14.875Z,15.04
2019-04-30T08:59:11.705Z,15.11
2019-04-30T09:00:12.758Z,15.21
2019-04-30T09:01:11.685Z,15.31
2019-04-30T09:02:15.948Z,15.44
2019-04-30T09:03:11.658Z,15.62
2019-04-30T09:04:11.646Z,15.44
2019-04-30T09:05:11.638Z,15.57
2019-04-30T09:06:11.622Z,15.84
2019-04-30T09:07:11.617Z,15.95
2019-04-30T09:08:11.613Z,15.98
2019-04-30T09:09:11.591Z,16.01
2019-04-30T09:10:11.588Z,16.00
2019-04-30T09:11:22.390Z,16.20
2019-04-30T09:12:12.550Z,16.31
2019-04-30T09:13:11.580Z,16.33
2019-04-30T09:14:11.549Z,16.47
2019-04-30T09:15:11.518Z,16.50
2019-04-30T09:16:11.511Z,16.39
2019-04-30T09:17:11.503Z,16.36
2019-04-30T09:18:12.582Z,16.20
2019-04-30T09:19:11.502Z,15.82
2019-04-30T09:20:11.491Z,15.64
2019-04-30T09:21:11.451Z,15.51
2019-04-30T09:22:15.152Z,15.61
2019-04-30T09:23:11.432Z,15.82
2019-04-30T09:24:11.423Z,15.92
2019-04-30T09:25:11.426Z,16.09
2019-04-30T09:26:11.396Z,16.28
2019-04-30T09:27:11.390Z,16.31
2019-04-30T09:28:11.377Z,16.46
2019-04-30T09:29:11.366Z,16.50
2019-04-30T09:30:11.349Z,16.36
2019-04-30T09:31:11.354Z,16.15
2019-04-30T09:32:11.330Z,16.12
2019-04-30T09:33:11.323Z,16.13
2019-04-30T09:34:17.487Z,16.09
2019-04-30T09:35:12.294Z,16.23
2019-04-30T09:36:11.299Z,16.26
2019-04-30T09:37:11.270Z,16.31
2019-04-30T09:38:11.259Z,16.42
2019-04-30T09:39:11.259Z,16.61
2019-04-30T09:40:18.353Z,16.87
2019-04-30T09:41:12.240Z,16.94
2019-04-30T09:42:11.214Z,17.06
2019-04-30T09:43:11.208Z,17.22
2019-04-30T09:44:11.191Z,17.38
2019-04-30T09:45:11.223Z,17.41
2019-04-30T09:46:21.976Z,17.39
2019-04-30T09:47:12.173Z,17.36
2019-04-30T09:48:11.151Z,17.57
2019-04-30T09:49:11.135Z,17.74
2019-04-30T09:50:11.123Z,17.71
2019-04-30T09:51:11.663Z,17.79
2019-04-30T09:52:11.441Z,17.64
2019-04-30T09:53:11.362Z,17.59
2019-04-30T09:54:12.800Z,17.38
2019-04-30T09:55:11.253Z,17.31
2019-04-30T09:56:11.067Z,17.23
2019-04-30T09:57:11.411Z,17.36
2019-04-30T09:58:17.325Z,17.41
2019-04-30T09:59:12.042Z,17.34
2019-04-30T10:00:11.017Z,17.46
2019-04-30T10:01:11.014Z,17.63
2019-04-30T10:02:10.990Z,17.68
2019-04-30T10:03:11.826Z,17.78
2019-04-30T10:04:11.558Z,17.92
2019-04-30T10:05:11.862Z,18.03
2019-04-30T10:06:10.950Z,18.04
2019-04-30T10:07:10.941Z,18.07
2019-04-30T10:08:10.928Z,18.28
2019-04-30T10:09:10.921Z,18.28
2019-04-30T10:10:11.486Z,18.33
2019-04-30T10:11:10.905Z,18.29
2019-04-30T10:12:10.891Z,18.22
2019-04-30T10:13:10.882Z,18.07
2019-04-30T10:14:10.861Z,17.78
2019-04-30T10:15:10.855Z,17.63
2019-04-30T10:16:10.840Z,17.60
2019-04-30T10:17:10.839Z,17.64
2019-04-30T10:18:10.821Z,17.86
2019-04-30T10:19:10.815Z,18.07
2019-04-30T10:20:10.802Z,18.25
2019-04-30T10:21:10.781Z,18.31
2019-04-30T10:22:10.767Z,18.40
2019-04-30T10:23:10.754Z,18.45
2019-04-30T10:24:15.420Z,18.45
2019-04-30T10:25:11.733Z,18.55
2019-04-30T10:26:10.722Z,18.59
2019-04-30T10:27:13.322Z,18.70
2019-04-30T10:28:10.714Z,18.53
2019-04-30T10:29:10.697Z,18.34
2019-04-30T10:30:10.693Z,18.03
2019-04-30T10:31:10.666Z,17.94
2019-04-30T10:32:10.680Z,17.92
2019-04-30T10:33:10.647Z,17.95
2019-04-30T10:34:10.633Z,18.03
2019-04-30T10:35:10.627Z,18.28
2019-04-30T10:36:10.650Z,18.33
2019-04-30T10:37:10.607Z,18.10
2019-04-30T10:38:10.611Z,17.98
2019-04-30T10:39:10.617Z,17.79
2019-04-30T10:40:10.605Z,17.79
2019-04-30T10:41:10.560Z,17.78
2019-04-30T10:42:10.545Z,17.90
2019-04-30T10:43:10.624Z,18.10
2019-04-30T10:44:10.622Z,18.20
2019-04-30T10:45:10.602Z,18.37
2019-04-30T10:46:10.540Z,18.45
2019-04-30T10:47:10.511Z,18.22
2019-04-30T10:48:10.494Z,18.41
2019-04-30T10:49:10.471Z,18.56
2019-04-30T10:50:10.529Z,18.75
2019-04-30T10:51:10.449Z,18.83
2019-04-30T10:52:10.430Z,18.96
2019-04-30T10:53:12.443Z,19.09
2019-04-30T10:54:22.761Z,19.14
2019-04-30T10:55:11.407Z,19.27
2019-04-30T10:56:10.486Z,19.12
2019-04-30T10:57:10.387Z,18.71
2019-04-30T10:58:10.365Z,18.37
2019-04-30T10:59:10.355Z,18.47
2019-04-30T11:00:10.347Z,18.60
2019-04-30T11:01:10.342Z,18.75
2019-04-30T11:02:10.320Z,18.84
2019-04-30T11:03:19.033Z,18.62
2019-04-30T11:04:11.311Z,18.62
2019-04-30T11:05:10.295Z,18.58
2019-04-30T11:06:10.276Z,18.78
2019-04-30T11:07:10.262Z,18.75
2019-04-30T11:08:10.278Z,18.88
2019-04-30T11:09:10.263Z,18.92
2019-04-30T11:10:10.234Z,18.90
2019-04-30T11:11:10.225Z,18.96
2019-04-30T11:12:10.214Z,19.19
2019-04-30T11:13:10.206Z,19.29
2019-04-30T11:14:10.203Z,19.08
2019-04-30T11:15:10.176Z,19.08
2019-04-30T11:16:13.225Z,19.21
2019-04-30T11:17:11.320Z,19.36
2019-04-30T11:18:10.340Z,19.30
2019-04-30T11:19:10.411Z,19.37
2019-04-30T11:20:10.532Z,19.30
2019-04-30T11:21:10.305Z,19.08
2019-04-30T11:22:10.297Z,18.80
2019-04-30T11:23:14.705Z,18.88
2019-04-30T11:24:11.300Z,19.14
2019-04-30T11:25:10.398Z,19.26
2019-04-30T11:26:10.542Z,19.04
2019-04-30T11:27:11.506Z,18.74
2019-04-30T11:28:10.765Z,18.47
2019-04-30T11:29:10.299Z,18.22
2019-04-30T11:30:20.753Z,17.97
2019-04-30T11:31:11.241Z,17.92
2019-04-30T11:32:10.190Z,18.28
2019-04-30T11:33:10.238Z,18.38
2019-04-30T11:34:09.964Z,18.40
2019-04-30T11:35:09.956Z,18.59
2019-04-30T11:36:09.945Z,18.70
2019-04-30T11:37:09.961Z,18.75
2019-04-30T11:38:09.923Z,18.89
2019-04-30T11:39:09.913Z,18.81
2019-04-30T11:40:09.902Z,19.02
2019-04-30T11:41:09.896Z,19.07
2019-04-30T11:42:09.880Z,19.30
2019-04-30T11:43:09.882Z,19.26
2019-04-30T11:44:09.858Z,19.49
2019-04-30T11:45:09.839Z,19.58
2019-04-30T11:46:09.837Z,19.67
2019-04-30T11:47:09.824Z,19.77
2019-04-30T11:48:09.805Z,19.62
2019-04-30T11:49:09.805Z,19.37
2019-04-30T11:50:09.801Z,19.33
2019-04-30T11:51:09.778Z,19.16
2019-04-30T11:52:09.791Z,18.95
2019-04-30T11:53:22.579Z,19.04
2019-04-30T11:54:10.741Z,19.15
2019-04-30T11:55:09.852Z,18.86
2019-04-30T11:56:09.727Z,18.49
2019-04-30T11:57:09.713Z,18.10
2019-04-30T11:58:21.072Z,18.00
2019-04-30T11:59:10.687Z,18.03
2019-04-30T12:00:10.771Z,18.23
2019-04-30T12:01:09.662Z,18.22
2019-04-30T12:02:09.675Z,18.23
2019-04-30T12:03:09.658Z,18.40
2019-04-30T12:04:09.652Z,18.59
2019-04-30T12:05:09.629Z,18.65
2019-04-30T12:06:09.605Z,18.43
2019-04-30T12:07:09.611Z,18.66
2019-04-30T12:08:09.664Z,18.80
2019-04-30T12:09:09.606Z,18.89
2019-04-30T12:10:09.596Z,18.90
2019-04-30T12:11:09.551Z,18.83
2019-04-30T12:12:09.552Z,18.98
2019-04-30T12:13:09.660Z,19.04
2019-04-30T12:14:09.526Z,18.96
2019-04-30T12:15:09.505Z,18.89
2019-04-30T12:16:09.507Z,18.75
2019-04-30T12:17:09.491Z,18.63
2019-04-30T12:18:09.484Z,18.37
2019-04-30T12:19:09.699Z,18.04
2019-04-30T12:20:09.708Z,17.90
2019-04-30T12:21:09.620Z,17.74
2019-04-30T12:22:09.649Z,17.85
2019-04-30T12:23:11.763Z,18.00
2019-04-30T12:24:09.410Z,18.22
2019-04-30T12:25:09.989Z,18.59
2019-04-30T12:26:09.553Z,18.78
2019-04-30T12:27:09.550Z,18.92
2019-04-30T12:28:09.568Z,18.92
2019-04-30T12:29:11.206Z,19.09
2019-04-30T12:30:09.344Z,19.29
2019-04-30T12:31:09.882Z,19.18
2019-04-30T12:32:09.388Z,19.04
2019-04-30T12:33:09.305Z,18.99
2019-04-30T12:34:09.294Z,19.24
2019-04-30T12:35:09.302Z,19.22
2019-04-30T12:36:09.274Z,18.90
2019-04-30T12:37:10.720Z,18.65
2019-04-30T12:38:09.253Z,18.66
2019-04-30T12:39:09.243Z,18.62
2019-04-30T12:40:13.902Z,18.74
2019-04-30T12:41:10.232Z,19.04
2019-04-30T12:42:09.207Z,19.27
2019-04-30T12:43:09.236Z,19.33
2019-04-30T12:44:09.199Z,19.24
2019-04-30T12:45:09.544Z,19.07
2019-04-30T12:46:09.160Z,19.07
2019-04-30T12:47:09.742Z,19.15
2019-04-30T12:48:09.139Z,19.19
2019-04-30T12:49:10.177Z,19.07
2019-04-30T12:50:09.564Z,18.80
2019-04-30T12:51:09.113Z,18.59
2019-04-30T12:52:09.099Z,18.66